Portada
METAR-TAF:

METAR-TAF

Aeroports :

Pavlodar, Kazakhstan

latitud: 52-11-42N, longitud: 077-04-26E, altitud: 125 m

Observació

L'informe es va fer fa 17 minuts, a les 03:30 UTC
Vent 8 kt del Oest
Temperatura -21°C
Humitat 77%
Pressió 1036 hPa
Visibilitat: 6000 m
Cel cobert a una alçada de 2800 ft
neu

METAR: UASP 210330Z 28004MPS 6000 -SN OVC028 M21/M24 Q1036 R21/410155 NOSIG RMK QFE766/1021

Hora: 09:47 (03:47 UTC)

Pronòstic

L'informe es va fer fa 1 hora i 47 minuts, a les 02:00 UTC
Pronòstic vàlid del 21 a les 03 UTC al 21 a les 12 UTC
Vent 10 kt del Oest/Sud-Oest
Visibilitat: 5000 m
Cel ennuvolat a una alçada de 1100 ft
neu, fum
Temporalment
l' 21 a les 03 UTC al 21 a les 06 UTC
Visibilitat: 1000 m
Cel ennuvolat a una alçada de 300 ft
neu, boirina
Temporalment
l' 21 a les 06 UTC al 21 a les 11 UTC
Vent 23 kt del Oest

TAF: UASP 210200Z 2103/2112 25005MPS 5000 -SN FU BKN011 TEMPO 2103/2106 1000 SN BR BKN003 TEMPO 2106/2111 27012MPS

Observacions i pronòstics meteorològics de més de 4000 aeroports (METAR i TAF).

Les estacions disponibles són els punts grocs i vermells al mapa.

Posi el ratolí al punt desitjat per veure el nom de l'estació.

Feu clic per veure les observacions i els pronòstics meteorològics.

Per canviar el mapa: feu clic els botons verds amb una creu de color negre per apropar; al botó verd amb un guió per allunyar la imatge; o en les fletxes verdes per a mapes adjacents.


METAR-TAF: